createdAt,value
2022-10-22T00:00:12.459Z,14.20
2022-10-22T00:02:39.416Z,14.10
2022-10-22T00:05:06.576Z,14.10
2022-10-22T00:07:33.494Z,14.10
2022-10-22T00:10:00.325Z,14.10
2022-10-22T00:12:27.189Z,14.10
2022-10-22T00:14:54.037Z,14.20
2022-10-22T00:17:20.844Z,14.20
2022-10-22T00:19:47.702Z,14.20
2022-10-22T00:22:14.561Z,14.20
2022-10-22T00:24:41.535Z,14.10
2022-10-22T00:27:14.191Z,14.20
2022-10-22T00:29:41.073Z,14.20
2022-10-22T00:32:07.952Z,14.20
2022-10-22T00:34:34.769Z,14.20
2022-10-22T00:37:01.585Z,14.20
2022-10-22T00:39:28.561Z,14.30
2022-10-22T00:41:55.892Z,14.30
2022-10-22T00:45:00.097Z,14.30
2022-10-22T00:47:28.527Z,14.40
2022-10-22T00:49:55.366Z,14.40
2022-10-22T00:52:22.240Z,14.40
2022-10-22T00:54:49.121Z,14.40
2022-10-22T00:57:16.927Z,14.40
2022-10-22T00:59:43.748Z,14.40
2022-10-22T01:02:10.571Z,14.30
2022-10-22T01:04:37.449Z,14.30
2022-10-22T01:07:04.277Z,14.30
2022-10-22T01:09:47.077Z,14.30
2022-10-22T01:12:39.753Z,14.40
2022-10-22T01:15:59.008Z,14.40
2022-10-22T01:18:45.964Z,14.40
2022-10-22T01:21:18.965Z,14.40
2022-10-22T01:24:23.029Z,14.40
2022-10-22T01:26:58.566Z,14.40
2022-10-22T01:29:37.447Z,14.40
2022-10-22T01:32:12.966Z,14.40
2022-10-22T01:34:40.643Z,14.40
2022-10-22T01:37:07.576Z,14.40
2022-10-22T01:39:34.443Z,14.40
2022-10-22T01:42:01.290Z,14.40
2022-10-22T01:44:32.719Z,14.30
2022-10-22T01:47:11.474Z,14.30
2022-10-22T01:49:41.784Z,14.20
2022-10-22T01:52:34.607Z,14.10
2022-10-22T01:55:16.534Z,14.10
2022-10-22T01:58:34.258Z,14.00
2022-10-22T02:01:09.281Z,13.90
2022-10-22T02:03:41.056Z,13.90
2022-10-22T02:06:11.285Z,13.90
2022-10-22T02:08:38.171Z,13.80
2022-10-22T02:11:05.106Z,13.80
2022-10-22T02:13:36.490Z,13.70
2022-10-22T02:16:04.694Z,13.70
2022-10-22T02:18:31.650Z,13.70
2022-10-22T02:20:58.965Z,13.60
2022-10-22T02:23:25.841Z,13.60
2022-10-22T02:26:02.239Z,13.60
2022-10-22T02:28:39.671Z,13.60
2022-10-22T02:31:13.642Z,13.60
2022-10-22T02:33:44.087Z,13.60
2022-10-22T02:36:10.931Z,13.50
2022-10-22T02:38:37.744Z,13.50
2022-10-22T02:41:04.586Z,13.50
2022-10-22T02:43:31.393Z,13.50
2022-10-22T02:45:58.235Z,13.50
2022-10-22T02:48:25.058Z,13.40
2022-10-22T02:50:51.937Z,13.50
2022-10-22T02:53:18.749Z,13.50
2022-10-22T02:55:45.564Z,13.50
2022-10-22T02:58:14.049Z,13.50
2022-10-22T03:00:40.946Z,13.50
2022-10-22T03:03:07.819Z,13.50
2022-10-22T03:05:34.617Z,13.50
2022-10-22T03:08:01.451Z,13.50
2022-10-22T03:10:28.304Z,13.50
2022-10-22T03:12:55.159Z,13.40
2022-10-22T03:15:22.104Z,13.40
2022-10-22T03:17:48.914Z,13.30
2022-10-22T03:20:15.802Z,13.20
2022-10-22T03:22:42.972Z,13.20
2022-10-22T03:25:12.250Z,13.30
2022-10-22T03:27:39.377Z,13.20
2022-10-22T03:30:07.278Z,13.20
2022-10-22T03:32:34.103Z,13.20
2022-10-22T03:37:32.911Z,13.10
2022-10-22T03:39:59.747Z,13.10
2022-10-22T03:42:26.575Z,13.10
2022-10-22T03:44:53.433Z,13.10
2022-10-22T03:47:20.282Z,13.10
2022-10-22T03:49:47.075Z,13.00
2022-10-22T03:52:14.512Z,13.00
2022-10-22T03:54:42.389Z,13.00
2022-10-22T03:57:09.692Z,12.90
2022-10-22T03:59:41.105Z,12.90
2022-10-22T04:02:08.140Z,12.90
2022-10-22T04:04:35.749Z,12.80
2022-10-22T04:07:02.663Z,12.70
2022-10-22T04:09:32.612Z,12.70
2022-10-22T04:11:59.965Z,12.70
2022-10-22T04:14:26.842Z,12.60
2022-10-22T04:16:53.774Z,12.50
2022-10-22T04:19:20.621Z,12.50
2022-10-22T04:21:47.422Z,12.50
2022-10-22T04:24:14.610Z,12.50
2022-10-22T04:26:41.569Z,12.50
2022-10-22T04:29:11.859Z,12.50
2022-10-22T04:31:42.010Z,12.40
2022-10-22T04:34:08.823Z,12.50
2022-10-22T04:36:35.624Z,12.40
2022-10-22T04:39:03.037Z,12.40
2022-10-22T04:41:34.966Z,12.40
2022-10-22T04:44:01.896Z,12.40
2022-10-22T04:46:30.142Z,12.30
2022-10-22T04:48:56.943Z,12.30
2022-10-22T04:51:25.171Z,12.20
2022-10-22T04:53:52.098Z,12.30
2022-10-22T04:56:20.805Z,12.20
2022-10-22T04:59:07.095Z,12.30
2022-10-22T05:01:42.601Z,12.30
2022-10-22T05:04:12.257Z,12.30
2022-10-22T05:06:39.214Z,12.30
2022-10-22T05:09:08.485Z,12.30
2022-10-22T05:11:36.784Z,12.30
2022-10-22T05:14:04.835Z,12.30
2022-10-22T05:16:32.152Z,12.30
2022-10-22T05:18:59.934Z,12.30
2022-10-22T05:21:26.906Z,12.30
2022-10-22T05:23:54.914Z,12.40
2022-10-22T05:26:22.380Z,12.40
2022-10-22T05:28:49.721Z,12.40
2022-10-22T05:31:16.869Z,12.50
2022-10-22T05:33:43.884Z,12.60
2022-10-22T05:36:16.049Z,12.70
2022-10-22T05:38:42.881Z,12.70
2022-10-22T05:41:11.431Z,12.80
2022-10-22T05:43:38.458Z,12.80
2022-10-22T05:46:10.086Z,12.90
2022-10-22T05:48:37.005Z,13.00
2022-10-22T05:51:11.205Z,13.10
2022-10-22T05:53:39.435Z,13.10
2022-10-22T05:56:08.015Z,13.10
2022-10-22T05:58:35.004Z,13.00
2022-10-22T06:01:05.562Z,13.10
2022-10-22T06:03:32.537Z,13.10
2022-10-22T06:06:03.406Z,13.20
2022-10-22T06:08:30.139Z,13.30
2022-10-22T06:10:56.945Z,13.30
2022-10-22T06:13:23.797Z,13.40
2022-10-22T06:15:52.795Z,13.40
2022-10-22T06:18:20.056Z,13.50
2022-10-22T06:20:47.743Z,13.60
2022-10-22T06:23:15.405Z,13.70
2022-10-22T06:25:42.750Z,13.80
2022-10-22T06:28:09.905Z,13.90
2022-10-22T06:30:41.829Z,14.00
2022-10-22T06:33:11.203Z,14.60
2022-10-22T06:35:38.021Z,14.90
2022-10-22T06:38:05.502Z,15.10
2022-10-22T06:40:33.315Z,15.10
2022-10-22T06:43:00.484Z,15.30
2022-10-22T06:45:27.324Z,15.40
2022-10-22T06:47:55.614Z,15.50
2022-10-22T06:50:22.479Z,15.50
2022-10-22T06:52:49.344Z,15.50
2022-10-22T06:55:16.203Z,15.60
2022-10-22T06:57:43.544Z,15.60
2022-10-22T07:00:10.961Z,15.60
2022-10-22T07:02:38.068Z,15.60
2022-10-22T07:05:05.486Z,15.70
2022-10-22T07:07:32.319Z,16.20
2022-10-22T07:09:59.131Z,17.20
2022-10-22T07:12:26.144Z,18.50
2022-10-22T07:14:52.947Z,19.50
2022-10-22T07:17:19.748Z,20.50
2022-10-22T07:19:49.689Z,21.50
2022-10-22T07:22:18.193Z,22.00
2022-10-22T07:24:44.978Z,21.80
2022-10-22T07:27:11.910Z,21.50
2022-10-22T07:29:38.783Z,21.10
2022-10-22T07:32:05.693Z,20.50
2022-10-22T07:34:32.522Z,20.20
2022-10-22T07:36:59.464Z,19.70
2022-10-22T07:39:26.292Z,19.40
2022-10-22T07:41:53.350Z,19.20
2022-10-22T07:44:20.199Z,19.10
2022-10-22T07:46:48.916Z,19.10
2022-10-22T07:49:15.953Z,18.90
2022-10-22T07:51:42.808Z,18.70
2022-10-22T07:54:09.644Z,18.80
2022-10-22T07:56:36.466Z,19.60
2022-10-22T07:59:03.306Z,21.00
2022-10-22T08:01:30.153Z,22.00
2022-10-22T08:03:56.997Z,22.60
2022-10-22T08:06:23.838Z,23.10
2022-10-22T08:08:51.023Z,23.90
2022-10-22T08:11:17.900Z,24.40
2022-10-22T08:13:45.807Z,24.40
2022-10-22T08:16:13.076Z,24.00
2022-10-22T08:18:40.003Z,23.30
2022-10-22T08:21:07.168Z,22.90
2022-10-22T08:23:34.557Z,23.40
2022-10-22T08:26:03.061Z,24.60
2022-10-22T08:28:31.314Z,25.90
2022-10-22T08:30:58.232Z,26.10
2022-10-22T08:33:25.092Z,26.10
2022-10-22T08:35:52.107Z,25.70
2022-10-22T08:38:19.102Z,25.20
2022-10-22T08:43:32.914Z,25.40
2022-10-22T08:46:26.310Z,25.60
2022-10-22T08:48:57.965Z,25.60
2022-10-22T08:51:30.406Z,25.40
2022-10-22T08:54:08.024Z,25.30
2022-10-22T08:56:36.249Z,24.70
2022-10-22T08:59:11.960Z,24.40
2022-10-22T09:01:39.958Z,24.10
2022-10-22T09:04:27.820Z,24.00
2022-10-22T09:06:54.752Z,24.10
2022-10-22T09:09:21.714Z,24.00
2022-10-22T09:11:50.341Z,24.40
2022-10-22T09:14:20.066Z,25.20
2022-10-22T09:17:05.022Z,25.90
2022-10-22T09:19:54.411Z,26.50
2022-10-22T09:22:30.065Z,26.80
2022-10-22T09:25:21.355Z,26.60
2022-10-22T09:27:48.906Z,26.30
2022-10-22T09:30:20.855Z,25.70
2022-10-22T09:32:52.221Z,25.10
2022-10-22T09:35:21.601Z,24.60
2022-10-22T09:37:50.568Z,24.10
2022-10-22T09:40:17.776Z,23.90
2022-10-22T09:42:46.463Z,23.80
2022-10-22T09:45:21.460Z,23.80
2022-10-22T09:48:01.495Z,23.90
2022-10-22T09:50:50.260Z,24.20
2022-10-22T09:53:20.978Z,24.60
2022-10-22T09:55:59.149Z,24.90
2022-10-22T09:58:26.168Z,25.00
2022-10-22T10:01:00.256Z,24.90
2022-10-22T10:03:28.670Z,24.80
2022-10-22T10:06:03.070Z,24.70
2022-10-22T10:08:32.849Z,24.40
2022-10-22T10:11:14.727Z,24.30
2022-10-22T10:13:56.670Z,24.10
2022-10-22T10:16:57.410Z,23.90
2022-10-22T10:19:38.603Z,23.70
2022-10-22T10:22:34.216Z,23.50
2022-10-22T10:25:34.403Z,23.30
2022-10-22T10:28:16.450Z,23.20
2022-10-22T10:31:17.892Z,23.20
2022-10-22T10:34:09.058Z,23.20
2022-10-22T10:37:11.081Z,23.20
2022-10-22T10:39:46.006Z,23.20
2022-10-22T10:42:19.198Z,23.20
2022-10-22T10:45:04.299Z,23.20
2022-10-22T10:47:45.364Z,23.20
2022-10-22T10:50:21.277Z,23.30
2022-10-22T10:53:19.583Z,23.40
2022-10-22T10:56:08.168Z,23.50
2022-10-22T10:59:01.631Z,23.60
2022-10-22T11:01:39.279Z,23.80
2022-10-22T11:04:08.928Z,23.90
2022-10-22T11:06:35.991Z,24.00
2022-10-22T11:09:12.891Z,24.00
2022-10-22T11:12:02.711Z,24.10
2022-10-22T11:14:47.320Z,24.20
2022-10-22T11:17:15.187Z,24.10
2022-10-22T11:20:01.517Z,24.10
2022-10-22T11:22:50.495Z,24.00
2022-10-22T11:25:53.788Z,24.00
2022-10-22T11:28:32.585Z,23.90
2022-10-22T11:31:04.351Z,23.80
2022-10-22T11:33:37.747Z,23.60
2022-10-22T11:36:05.066Z,23.50
2022-10-22T11:38:35.075Z,23.30
2022-10-22T11:41:05.753Z,23.20
2022-10-22T11:43:33.461Z,23.00
2022-10-22T11:46:08.682Z,23.00
2022-10-22T11:48:37.619Z,22.90
2022-10-22T11:51:04.779Z,22.80
2022-10-22T11:53:32.485Z,22.80
2022-10-22T11:56:10.018Z,22.80
2022-10-22T11:58:42.174Z,22.70
2022-10-22T12:01:08.990Z,22.70
2022-10-22T12:03:45.081Z,22.70
2022-10-22T12:06:19.847Z,22.50
2022-10-22T12:08:49.583Z,22.60
2022-10-22T12:11:19.432Z,22.70
2022-10-22T12:14:02.082Z,22.70
2022-10-22T12:16:55.330Z,22.70
2022-10-22T12:19:23.303Z,22.80
2022-10-22T12:21:55.130Z,22.80
2022-10-22T12:24:23.381Z,22.80
2022-10-22T12:26:52.733Z,22.90
2022-10-22T12:29:22.813Z,23.00
2022-10-22T12:31:49.703Z,23.00
2022-10-22T12:34:18.563Z,23.10
2022-10-22T12:36:46.649Z,23.10
2022-10-22T12:39:22.412Z,23.20
2022-10-22T12:41:49.283Z,23.20
2022-10-22T12:44:17.472Z,23.20
2022-10-22T12:46:45.594Z,23.20
2022-10-22T12:49:23.863Z,23.30
2022-10-22T12:51:50.746Z,23.30
2022-10-22T12:54:28.449Z,23.30
2022-10-22T12:56:55.768Z,23.40
2022-10-22T12:59:36.058Z,23.40
2022-10-22T13:02:04.902Z,23.30
2022-10-22T13:04:36.794Z,23.30
2022-10-22T13:07:16.963Z,23.30
2022-10-22T13:09:55.812Z,23.20
2022-10-22T13:12:35.377Z,23.30
2022-10-22T13:15:21.794Z,23.30
2022-10-22T13:17:50.007Z,23.30
2022-10-22T13:20:21.497Z,23.30
2022-10-22T13:23:02.899Z,23.30
2022-10-22T13:25:30.537Z,23.20
2022-10-22T13:27:58.105Z,23.20
2022-10-22T13:30:32.244Z,23.20
2022-10-22T13:33:02.898Z,23.10
2022-10-22T13:35:37.370Z,23.20
2022-10-22T13:38:11.474Z,23.10
2022-10-22T13:40:39.098Z,23.10
2022-10-22T13:43:05.905Z,23.00
2022-10-22T13:45:32.799Z,23.00
2022-10-22T13:47:59.621Z,22.80
2022-10-22T13:50:26.401Z,22.70
2022-10-22T13:52:54.473Z,22.60
2022-10-22T13:55:25.657Z,22.50
2022-10-22T13:58:19.474Z,22.40
2022-10-22T14:00:57.561Z,22.40
2022-10-22T14:03:27.259Z,22.30
2022-10-22T14:05:54.120Z,22.20
2022-10-22T14:08:21.461Z,22.10
2022-10-22T14:10:48.428Z,22.10
2022-10-22T14:13:16.862Z,22.00
2022-10-22T14:15:44.300Z,21.90
2022-10-22T14:18:12.836Z,21.80
2022-10-22T14:20:40.502Z,21.80
2022-10-22T14:23:18.928Z,21.70
2022-10-22T14:25:45.742Z,21.60
2022-10-22T14:28:12.651Z,21.60
2022-10-22T14:30:39.571Z,21.60
2022-10-22T14:33:17.324Z,21.50
2022-10-22T14:35:44.172Z,21.50
2022-10-22T14:38:11.086Z,21.40
2022-10-22T14:40:41.995Z,21.40
2022-10-22T14:43:14.640Z,21.30
2022-10-22T14:45:41.487Z,21.30
2022-10-22T14:48:08.598Z,21.30
2022-10-22T14:50:35.499Z,21.20
2022-10-22T14:53:02.332Z,21.20
2022-10-22T14:55:29.245Z,21.20
2022-10-22T14:57:56.066Z,21.20
2022-10-22T15:00:22.921Z,21.20
2022-10-22T15:02:49.752Z,21.20
2022-10-22T15:05:17.531Z,21.10
2022-10-22T15:07:45.053Z,21.10
2022-10-22T15:10:11.935Z,21.00
2022-10-22T15:12:38.781Z,20.90
2022-10-22T15:15:06.180Z,20.80
2022-10-22T15:17:33.077Z,20.80
2022-10-22T15:20:04.080Z,20.80
2022-10-22T15:22:32.077Z,20.80
2022-10-22T15:24:58.952Z,20.80
2022-10-22T15:27:25.963Z,20.70
2022-10-22T15:29:52.885Z,20.70
2022-10-22T15:32:19.806Z,20.60
2022-10-22T15:34:46.632Z,20.60
2022-10-22T15:37:14.095Z,20.50
2022-10-22T15:39:41.757Z,20.40
2022-10-22T15:42:09.622Z,20.30
2022-10-22T15:44:36.734Z,20.20
2022-10-22T15:47:04.136Z,20.10
2022-10-22T15:49:30.998Z,20.10
2022-10-22T15:51:57.823Z,20.10
2022-10-22T15:54:26.462Z,19.90
2022-10-22T15:56:53.298Z,19.90
2022-10-22T15:59:20.134Z,19.90
2022-10-22T16:01:47.121Z,19.90
2022-10-22T16:04:13.964Z,19.90
2022-10-22T16:06:43.733Z,19.80
2022-10-22T16:09:12.587Z,19.80
2022-10-22T16:11:39.673Z,19.80
2022-10-22T16:14:06.677Z,19.80
2022-10-22T16:16:35.432Z,19.80
2022-10-22T16:19:02.294Z,19.70
2022-10-22T16:21:29.190Z,19.70
2022-10-22T16:23:56.025Z,19.70
2022-10-22T16:26:22.970Z,19.70
2022-10-22T16:28:49.837Z,19.70
2022-10-22T16:31:17.529Z,19.60
2022-10-22T16:33:47.748Z,19.60
2022-10-22T16:36:18.050Z,19.50
2022-10-22T16:38:45.778Z,19.40
2022-10-22T16:41:35.475Z,19.30
2022-10-22T16:44:04.715Z,19.30
2022-10-22T16:46:31.711Z,19.20
2022-10-22T16:48:58.607Z,19.20
2022-10-22T16:51:26.354Z,19.20
2022-10-22T16:53:53.356Z,19.10
2022-10-22T16:56:20.564Z,19.10
2022-10-22T16:58:49.548Z,19.00
2022-10-22T17:01:18.068Z,18.90
2022-10-22T17:03:45.311Z,18.90
2022-10-22T17:06:12.229Z,18.90
2022-10-22T17:08:39.186Z,18.90
2022-10-22T17:11:13.124Z,18.80
2022-10-22T17:13:42.956Z,18.80
2022-10-22T17:16:11.732Z,18.80
2022-10-22T17:18:39.655Z,18.90
2022-10-22T17:21:07.354Z,18.90
2022-10-22T17:23:34.228Z,18.90
2022-10-22T17:26:06.653Z,18.90
2022-10-22T17:28:33.741Z,19.00
2022-10-22T17:31:20.220Z,19.00
2022-10-22T17:33:47.278Z,19.00
2022-10-22T17:36:14.157Z,19.10
2022-10-22T17:38:41.365Z,19.10
2022-10-22T17:41:11.424Z,19.10
2022-10-22T17:43:41.376Z,19.10
2022-10-22T17:46:10.855Z,19.20
2022-10-22T17:48:37.738Z,19.30
2022-10-22T17:51:11.549Z,19.40
2022-10-22T17:53:41.559Z,19.40
2022-10-22T17:56:10.276Z,19.50
2022-10-22T17:58:37.393Z,19.70
2022-10-22T18:01:04.432Z,19.70
2022-10-22T18:03:31.332Z,19.70
2022-10-22T18:06:07.428Z,19.70
2022-10-22T18:08:34.344Z,19.70
2022-10-22T18:11:01.383Z,19.70
2022-10-22T18:13:28.380Z,19.60
2022-10-22T18:15:56.060Z,19.50
2022-10-22T18:18:25.951Z,19.40
2022-10-22T18:20:52.955Z,19.30
2022-10-22T18:23:19.939Z,19.30
2022-10-22T18:25:48.795Z,19.20
2022-10-22T18:28:16.426Z,19.00
2022-10-22T18:30:43.744Z,18.90
2022-10-22T18:33:12.123Z,18.80
2022-10-22T18:35:41.274Z,18.60
2022-10-22T18:38:09.100Z,18.50
2022-10-22T18:40:36.233Z,18.40
2022-10-22T18:43:03.539Z,18.30
2022-10-22T18:45:30.383Z,18.20
2022-10-22T18:47:58.886Z,18.20
2022-10-22T18:50:25.809Z,18.10
2022-10-22T18:52:52.659Z,18.10
2022-10-22T18:55:19.479Z,18.00
2022-10-22T18:57:46.308Z,18.10
2022-10-22T19:00:13.992Z,18.10
2022-10-22T19:02:41.145Z,18.00
2022-10-22T19:05:08.595Z,17.90
2022-10-22T19:07:36.617Z,17.80
2022-10-22T19:10:04.096Z,17.70
2022-10-22T19:12:30.912Z,17.80
2022-10-22T19:14:57.832Z,17.80
2022-10-22T19:17:25.120Z,17.80
2022-10-22T19:19:51.981Z,17.90
2022-10-22T19:22:19.022Z,17.90
2022-10-22T19:24:47.151Z,18.00
2022-10-22T19:27:13.978Z,18.00
2022-10-22T19:29:40.809Z,17.90
2022-10-22T19:34:41.215Z,18.00
2022-10-22T19:37:08.457Z,18.00
2022-10-22T19:39:35.396Z,18.00
2022-10-22T19:42:04.229Z,18.00
2022-10-22T19:44:31.072Z,18.00
2022-10-22T19:46:57.905Z,18.00
2022-10-22T19:49:24.747Z,18.00
2022-10-22T19:51:51.598Z,18.00
2022-10-22T19:54:19.669Z,18.00
2022-10-22T19:56:46.789Z,18.00
2022-10-22T19:59:15.188Z,18.00
2022-10-22T20:01:42.263Z,18.00
2022-10-22T20:04:11.963Z,17.90
2022-10-22T20:06:39.332Z,17.90
2022-10-22T20:09:06.573Z,17.90
2022-10-22T20:11:33.398Z,17.90
2022-10-22T20:14:00.256Z,17.80
2022-10-22T20:16:29.903Z,17.90
2022-10-22T20:19:01.390Z,17.80
2022-10-22T20:21:28.278Z,17.80
2022-10-22T20:23:56.479Z,17.80
2022-10-22T20:26:24.547Z,17.80
2022-10-22T20:28:52.049Z,17.80
2022-10-22T20:31:19.980Z,17.90
2022-10-22T20:33:47.765Z,17.80
2022-10-22T20:36:17.574Z,17.80
2022-10-22T20:38:45.499Z,17.80
2022-10-22T20:41:14.042Z,17.80
2022-10-22T20:43:42.911Z,17.80
2022-10-22T20:46:16.910Z,17.90
2022-10-22T20:48:43.720Z,17.80
2022-10-22T20:51:10.555Z,17.80
2022-10-22T20:53:37.359Z,17.80
2022-10-22T20:56:04.411Z,17.70
2022-10-22T20:58:31.337Z,17.70
2022-10-22T21:00:58.330Z,17.70
2022-10-22T21:03:25.181Z,17.70
2022-10-22T21:05:52.049Z,17.70
2022-10-22T21:08:18.870Z,17.70
2022-10-22T21:10:49.300Z,17.70
2022-10-22T21:13:16.653Z,17.70
2022-10-22T21:15:43.489Z,17.70
2022-10-22T21:18:10.334Z,17.70
2022-10-22T21:20:39.191Z,17.70
2022-10-22T21:23:06.956Z,17.60
2022-10-22T21:25:33.940Z,17.60
2022-10-22T21:28:00.769Z,17.50
2022-10-22T21:30:27.660Z,17.50
2022-10-22T21:32:56.844Z,17.50
2022-10-22T21:35:24.219Z,17.40
2022-10-22T21:37:51.083Z,17.40
2022-10-22T21:40:17.921Z,17.40
2022-10-22T21:42:44.866Z,17.40
2022-10-22T21:45:13.613Z,17.40
2022-10-22T21:47:41.918Z,17.40
2022-10-22T21:50:09.344Z,17.30
2022-10-22T21:52:36.238Z,17.30
2022-10-22T21:55:03.068Z,17.30
2022-10-22T21:57:29.859Z,17.40
2022-10-22T21:59:56.876Z,17.40
2022-10-22T22:02:24.130Z,17.40
2022-10-22T22:04:54.852Z,17.40
2022-10-22T22:07:22.086Z,17.40
2022-10-22T22:09:52.114Z,17.40
2022-10-22T22:12:21.159Z,17.40
2022-10-22T22:14:47.952Z,17.40
2022-10-22T22:17:16.587Z,17.40
2022-10-22T22:19:43.434Z,17.40
2022-10-22T22:22:10.321Z,17.40
2022-10-22T22:24:38.320Z,17.40
2022-10-22T22:27:05.212Z,17.40
2022-10-22T22:29:32.027Z,17.40
2022-10-22T22:31:58.866Z,17.40
2022-10-22T22:34:25.667Z,17.40
2022-10-22T22:36:52.727Z,17.40
2022-10-22T22:39:21.063Z,17.40
2022-10-22T22:41:48.049Z,17.40
2022-10-22T22:44:15.047Z,17.50
2022-10-22T22:46:41.960Z,17.40
2022-10-22T22:49:08.832Z,17.40
2022-10-22T22:51:35.815Z,17.30
2022-10-22T22:54:02.699Z,17.30
2022-10-22T22:56:30.776Z,17.30
2022-10-22T22:58:57.827Z,17.30
2022-10-22T23:01:29.303Z,17.30
2022-10-22T23:04:12.090Z,17.20
2022-10-22T23:06:38.998Z,17.20
2022-10-22T23:09:06.884Z,17.20
2022-10-22T23:11:33.896Z,17.20
2022-10-22T23:14:03.506Z,17.20
2022-10-22T23:16:32.220Z,17.20
2022-10-22T23:18:59.747Z,17.20
2022-10-22T23:21:33.959Z,17.20
2022-10-22T23:24:02.252Z,17.20
2022-10-22T23:26:34.181Z,17.30
2022-10-22T23:29:05.469Z,17.30
2022-10-22T23:31:32.274Z,17.30
2022-10-22T23:33:59.230Z,17.30
2022-10-22T23:36:26.167Z,17.30
2022-10-22T23:38:52.975Z,17.20
2022-10-22T23:41:19.799Z,17.20
2022-10-22T23:43:46.611Z,17.20
2022-10-22T23:46:13.517Z,17.10
2022-10-22T23:48:40.807Z,17.20
2022-10-22T23:51:14.376Z,17.20
2022-10-22T23:53:41.397Z,17.10
2022-10-22T23:56:09.946Z,17.10
2022-10-22T23:58:36.880Z,17.10
